createdAt,value
2017-12-30T00:01:19.285Z,9.16
2017-12-30T00:03:47.578Z,9.80
2017-12-30T00:06:19.477Z,6.52
2017-12-30T00:08:47.808Z,7.74
2017-12-30T00:11:16.102Z,7.92
2017-12-30T00:13:44.401Z,6.32
2017-12-30T00:16:12.735Z,8.64
2017-12-30T00:18:40.266Z,11.00
2017-12-30T00:21:22.789Z,13.48
2017-12-30T00:23:51.094Z,13.80
2017-12-30T00:26:19.441Z,9.48
2017-12-30T00:28:47.735Z,12.52
2017-12-30T00:31:19.541Z,18.34
2017-12-30T00:33:47.022Z,6.92
2017-12-30T00:36:21.188Z,17.52
2017-12-30T00:38:49.519Z,15.00
2017-12-30T00:41:18.752Z,8.36
2017-12-30T00:43:47.083Z,11.32
2017-12-30T00:46:15.331Z,8.76
2017-12-30T00:48:45.538Z,10.08
2017-12-30T00:51:15.254Z,14.08
2017-12-30T00:53:44.668Z,7.34
2017-12-30T00:56:12.960Z,14.44
2017-12-30T00:58:45.432Z,12.48
2017-12-30T01:01:14.851Z,11.48
2017-12-30T01:03:44.872Z,6.54
2017-12-30T01:06:13.881Z,12.52
2017-12-30T01:08:42.167Z,22.76
2017-12-30T01:11:20.813Z,8.24
2017-12-30T01:13:49.098Z,13.90
2017-12-30T01:16:18.362Z,8.86
2017-12-30T01:18:46.642Z,4.98
2017-12-30T01:21:22.014Z,6.96
2017-12-30T01:23:50.298Z,13.58
2017-12-30T01:26:22.466Z,13.18
2017-12-30T01:28:50.710Z,10.52
2017-12-30T01:31:18.973Z,8.40
2017-12-30T01:33:47.264Z,13.78
2017-12-30T01:36:15.550Z,14.18
2017-12-30T01:38:44.653Z,7.38
2017-12-30T01:41:22.585Z,11.78
2017-12-30T01:43:50.875Z,19.46
2017-12-30T01:46:19.166Z,10.32
2017-12-30T01:48:59.463Z,12.30
2017-12-30T01:51:27.758Z,11.04
2017-12-30T01:54:06.448Z,12.68
2017-12-30T01:56:34.726Z,13.34
2017-12-30T01:59:02.971Z,10.30
2017-12-30T02:01:31.251Z,11.60
2017-12-30T02:04:19.818Z,17.64
2017-12-30T02:06:48.106Z,4.66
2017-12-30T02:09:34.875Z,11.94
2017-12-30T02:12:03.155Z,15.66
2017-12-30T02:14:38.743Z,22.24
2017-12-30T02:17:07.022Z,16.50
2017-12-30T02:19:36.197Z,8.66
2017-12-30T02:22:04.455Z,8.72
2017-12-30T02:24:32.756Z,11.60
2017-12-30T02:27:01.046Z,17.36
2017-12-30T02:29:32.486Z,10.02
2017-12-30T02:32:00.777Z,17.26
2017-12-30T02:34:42.742Z,16.50
2017-12-30T02:37:11.048Z,7.16
2017-12-30T02:40:02.525Z,10.50
2017-12-30T02:42:30.815Z,18.14
2017-12-30T02:44:59.071Z,11.56
2017-12-30T02:47:27.320Z,11.16
2017-12-30T02:50:09.069Z,15.38
2017-12-30T02:52:37.390Z,15.44
2017-12-30T02:55:05.656Z,13.06
2017-12-30T02:57:35.070Z,18.04
2017-12-30T03:00:06.957Z,10.72
2017-12-30T03:02:36.322Z,11.84
2017-12-30T03:05:04.597Z,13.30
2017-12-30T03:07:52.253Z,13.12
2017-12-30T03:10:20.534Z,11.58
2017-12-30T03:12:48.774Z,7.30
2017-12-30T03:15:17.070Z,10.58
2017-12-30T03:17:45.306Z,7.84
2017-12-30T03:20:13.562Z,10.50
2017-12-30T03:22:51.652Z,15.28
2017-12-30T03:25:19.906Z,11.92
2017-12-30T03:27:55.845Z,15.54
2017-12-30T03:30:24.100Z,11.22
2017-12-30T03:32:53.420Z,13.90
2017-12-30T03:35:21.665Z,8.84
2017-12-30T03:38:00.016Z,12.42
2017-12-30T03:40:28.274Z,15.44
2017-12-30T03:42:58.479Z,17.54
2017-12-30T03:45:26.739Z,15.18
2017-12-30T03:48:03.026Z,15.88
2017-12-30T03:50:31.315Z,11.46
2017-12-30T03:53:00.605Z,14.88
2017-12-30T03:55:28.136Z,9.98
2017-12-30T03:57:56.370Z,8.52
2017-12-30T04:00:24.654Z,11.68
2017-12-30T04:02:52.917Z,5.86
2017-12-30T04:05:21.194Z,12.16
2017-12-30T04:07:59.719Z,11.54
2017-12-30T04:10:27.971Z,21.90
2017-12-30T04:13:02.870Z,8.50
2017-12-30T04:15:31.131Z,12.42
2017-12-30T04:17:58.660Z,20.48
2017-12-30T04:20:26.938Z,10.48
2017-12-30T04:22:58.433Z,7.06
2017-12-30T04:25:26.722Z,13.12
2017-12-30T04:27:54.998Z,18.98
2017-12-30T04:30:23.250Z,16.26
2017-12-30T04:32:57.689Z,12.66
2017-12-30T04:35:25.937Z,12.90
2017-12-30T04:38:00.684Z,6.52
2017-12-30T04:40:28.965Z,14.96
2017-12-30T04:42:57.253Z,27.64
2017-12-30T04:45:25.511Z,15.30
2017-12-30T04:47:53.779Z,15.20
2017-12-30T04:50:22.065Z,24.84
2017-12-30T04:53:00.276Z,22.22
2017-12-30T04:55:28.572Z,26.08
2017-12-30T04:57:56.857Z,21.50
2017-12-30T05:00:25.101Z,19.00
2017-12-30T05:02:53.385Z,19.00
2017-12-30T05:05:21.626Z,6.84
2017-12-30T05:08:10.141Z,10.40
2017-12-30T05:10:38.384Z,11.40
2017-12-30T05:13:23.758Z,12.52
2017-12-30T05:15:52.032Z,15.98
2017-12-30T05:18:20.281Z,24.04
2017-12-30T05:20:48.561Z,17.40
2017-12-30T05:23:17.762Z,19.80
2017-12-30T05:25:46.014Z,18.30
2017-12-30T05:28:31.097Z,20.06
2017-12-30T05:30:59.345Z,13.70
2017-12-30T05:33:37.475Z,15.14
2017-12-30T05:36:05.760Z,12.64
2017-12-30T05:38:36.125Z,21.80
2017-12-30T05:41:05.400Z,17.48
2017-12-30T05:43:33.657Z,13.50
2017-12-30T05:46:01.941Z,13.38
2017-12-30T05:48:32.106Z,17.56
2017-12-30T05:51:00.429Z,17.06
2017-12-30T05:53:45.552Z,13.82
2017-12-30T05:56:13.834Z,22.44
2017-12-30T05:58:42.125Z,10.42
2017-12-30T06:01:10.382Z,12.26
2017-12-30T06:03:38.630Z,18.80
2017-12-30T06:06:06.917Z,16.00
2017-12-30T06:08:43.274Z,10.98
2017-12-30T06:11:11.560Z,16.60
2017-12-30T06:13:45.447Z,7.12
2017-12-30T06:16:13.694Z,23.78
2017-12-30T06:18:45.887Z,18.20
2017-12-30T06:21:14.130Z,9.88
2017-12-30T06:23:50.742Z,19.52
2017-12-30T06:26:19.024Z,12.44
2017-12-30T06:28:48.292Z,11.76
2017-12-30T06:31:16.547Z,12.68
2017-12-30T06:33:51.933Z,12.48
2017-12-30T06:36:20.222Z,14.60
2017-12-30T06:38:48.475Z,12.26
2017-12-30T06:41:16.727Z,13.26
2017-12-30T06:43:45.006Z,10.36
2017-12-30T06:46:23.797Z,16.16
2017-12-30T06:48:52.042Z,17.12
2017-12-30T06:51:28.071Z,16.58
2017-12-30T06:53:56.325Z,18.22
2017-12-30T06:56:28.298Z,18.20
2017-12-30T06:58:55.794Z,14.30
2017-12-30T07:01:28.397Z,12.24
2017-12-30T07:03:56.659Z,13.46
2017-12-30T07:06:28.476Z,11.82
2017-12-30T07:08:56.768Z,23.86
2017-12-30T07:11:25.043Z,12.20
2017-12-30T07:13:53.321Z,17.48
2017-12-30T07:16:21.589Z,18.06
2017-12-30T07:18:50.073Z,15.58
2017-12-30T07:21:18.346Z,15.64
2017-12-30T07:23:46.601Z,19.40
2017-12-30T07:26:14.885Z,14.04
2017-12-30T07:28:43.134Z,15.20
2017-12-30T07:31:11.390Z,15.12
2017-12-30T07:33:39.674Z,10.36
2017-12-30T07:36:14.011Z,12.28
2017-12-30T07:38:42.310Z,20.62
2017-12-30T07:41:21.035Z,13.32
2017-12-30T07:43:49.336Z,12.22
2017-12-30T07:46:17.608Z,11.38
2017-12-30T07:48:45.863Z,17.48
2017-12-30T07:51:17.484Z,9.94
2017-12-30T07:53:45.754Z,10.24
2017-12-30T07:56:33.157Z,13.80
2017-12-30T07:59:01.420Z,17.38
2017-12-30T08:01:29.701Z,14.80
2017-12-30T08:03:57.950Z,12.34
2017-12-30T08:06:43.191Z,11.66
2017-12-30T08:09:11.479Z,8.00
2017-12-30T08:11:46.545Z,14.00
2017-12-30T08:14:14.828Z,10.96
2017-12-30T08:16:50.542Z,11.86
2017-12-30T08:19:18.825Z,10.50
2017-12-30T08:21:47.074Z,10.86
2017-12-30T08:24:15.357Z,15.26
2017-12-30T08:27:00.493Z,9.38
2017-12-30T08:29:28.797Z,14.82
2017-12-30T08:32:00.043Z,8.72
2017-12-30T08:34:28.313Z,7.86
2017-12-30T08:37:07.879Z,8.02
2017-12-30T08:39:36.186Z,11.92
2017-12-30T08:42:06.378Z,13.98
2017-12-30T08:44:34.989Z,10.98
2017-12-30T08:47:13.309Z,12.46
2017-12-30T08:49:41.595Z,14.46
2017-12-30T08:52:09.846Z,10.60
2017-12-30T08:54:38.121Z,8.46
2017-12-30T08:57:06.374Z,7.90
2017-12-30T08:59:34.972Z,13.78
2017-12-30T09:02:05.066Z,8.54
2017-12-30T09:04:34.519Z,12.96
2017-12-30T09:07:02.797Z,12.78
2017-12-30T09:09:31.046Z,17.42
2017-12-30T09:11:59.337Z,6.84
2017-12-30T09:14:27.573Z,9.40
2017-12-30T09:16:58.661Z,6.42
2017-12-30T09:19:27.153Z,7.52
2017-12-30T09:21:55.398Z,8.10
2017-12-30T09:24:23.689Z,7.36
2017-12-30T09:26:51.956Z,5.38
2017-12-30T09:29:20.190Z,5.80
2017-12-30T09:31:48.465Z,5.80
2017-12-30T09:34:16.719Z,5.62
2017-12-30T09:36:45.006Z,8.28
2017-12-30T09:39:13.290Z,6.02
2017-12-30T09:41:41.532Z,6.28
2017-12-30T09:44:09.802Z,8.96
2017-12-30T09:46:38.064Z,12.88
2017-12-30T09:49:06.337Z,6.10
2017-12-30T09:51:36.928Z,5.18
2017-12-30T09:54:06.538Z,4.90
2017-12-30T09:56:35.562Z,4.00
2017-12-30T09:59:04.893Z,7.82
2017-12-30T10:01:33.141Z,4.90
2017-12-30T10:04:01.392Z,4.28
2017-12-30T10:06:29.701Z,5.20
2017-12-30T10:08:57.951Z,5.18
2017-12-30T10:11:26.189Z,6.50
2017-12-30T10:13:54.518Z,5.02
2017-12-30T10:16:22.743Z,4.70
2017-12-30T10:18:51.036Z,5.98
2017-12-30T10:21:19.327Z,6.28
2017-12-30T10:23:47.584Z,7.92
2017-12-30T10:26:15.862Z,5.42
2017-12-30T10:28:44.142Z,7.60
2017-12-30T10:31:12.390Z,7.40
2017-12-30T10:33:40.678Z,6.46
2017-12-30T10:36:08.917Z,5.48
2017-12-30T10:38:37.157Z,6.94
2017-12-30T10:41:11.809Z,7.68
2017-12-30T10:43:40.076Z,10.48
2017-12-30T10:46:08.351Z,6.98
2017-12-30T10:48:36.122Z,9.60
2017-12-30T10:51:04.406Z,17.10
2017-12-30T10:53:32.653Z,16.36
2017-12-30T10:56:00.934Z,15.40
2017-12-30T10:58:29.217Z,19.36
2017-12-30T11:00:58.363Z,17.68
2017-12-30T11:03:26.715Z,15.86
2017-12-30T11:05:54.933Z,24.42
2017-12-30T11:08:35.800Z,23.80
2017-12-30T11:11:05.278Z,29.64
2017-12-30T11:13:33.550Z,41.46
2017-12-30T11:16:01.849Z,29.44
2017-12-30T11:18:30.112Z,29.12
2017-12-30T11:20:58.375Z,31.02
2017-12-30T11:23:26.672Z,37.36
2017-12-30T11:25:54.932Z,27.48
2017-12-30T11:28:23.217Z,45.60
2017-12-30T11:30:51.478Z,30.84
2017-12-30T11:33:19.743Z,38.08
2017-12-30T11:35:48.029Z,33.36
2017-12-30T11:38:16.324Z,33.06
2017-12-30T11:40:44.577Z,37.82
2017-12-30T11:43:12.872Z,49.78
2017-12-30T11:45:41.138Z,30.54
2017-12-30T11:48:09.429Z,33.16
2017-12-30T11:50:37.686Z,30.20
2017-12-30T11:53:05.943Z,29.48
2017-12-30T11:55:35.128Z,33.16
2017-12-30T11:58:03.995Z,33.86
2017-12-30T12:00:32.278Z,28.80
2017-12-30T12:03:00.584Z,41.34
2017-12-30T12:05:28.833Z,31.46
2017-12-30T12:07:57.076Z,40.04
2017-12-30T12:10:25.356Z,32.94
2017-12-30T12:12:53.654Z,28.50
2017-12-30T12:15:21.911Z,35.54
2017-12-30T12:17:50.175Z,33.78
2017-12-30T12:20:18.470Z,31.00
2017-12-30T12:22:46.738Z,45.70
2017-12-30T12:25:14.999Z,42.38
2017-12-30T12:27:43.281Z,23.98
2017-12-30T12:30:11.570Z,42.88
2017-12-30T12:32:39.879Z,39.94
2017-12-30T12:35:11.823Z,38.60
2017-12-30T12:37:40.121Z,43.68
2017-12-30T12:40:08.423Z,51.26
2017-12-30T12:42:36.706Z,51.56
2017-12-30T12:45:06.177Z,45.28
2017-12-30T12:47:34.470Z,48.40
2017-12-30T12:50:02.774Z,40.30
2017-12-30T12:52:31.042Z,44.26
2017-12-30T12:54:59.347Z,51.68
2017-12-30T12:57:27.600Z,43.18
2017-12-30T12:59:55.860Z,57.28
2017-12-30T13:02:24.138Z,48.96
2017-12-30T13:04:52.439Z,52.64
2017-12-30T13:07:20.693Z,43.52
2017-12-30T13:09:49.031Z,37.48
2017-12-30T13:12:17.360Z,46.14
2017-12-30T13:14:45.617Z,60.70
2017-12-30T13:17:13.910Z,71.52
2017-12-30T13:19:42.222Z,41.68
2017-12-30T13:22:10.506Z,50.86
2017-12-30T13:24:38.762Z,49.86
2017-12-30T13:27:07.064Z,53.74
2017-12-30T13:29:36.655Z,47.50
2017-12-30T13:32:06.280Z,45.44
2017-12-30T13:34:34.589Z,57.04
2017-12-30T13:37:02.845Z,55.42
2017-12-30T13:39:31.138Z,33.10
2017-12-30T13:41:59.402Z,56.02
2017-12-30T13:44:27.694Z,37.52
2017-12-30T13:46:56.177Z,46.80
2017-12-30T13:49:24.465Z,46.02
2017-12-30T13:51:52.768Z,48.66
2017-12-30T13:54:21.076Z,49.36
2017-12-30T13:56:49.341Z,36.60
2017-12-30T13:59:17.602Z,40.52
2017-12-30T14:01:45.885Z,49.18
2017-12-30T14:04:14.145Z,41.42
2017-12-30T14:06:42.481Z,37.48
2017-12-30T14:09:10.746Z,38.32
2017-12-30T14:11:39.033Z,36.16
2017-12-30T14:14:07.333Z,28.42
2017-12-30T14:16:35.681Z,59.10
2017-12-30T14:19:03.938Z,33.84
2017-12-30T14:21:32.198Z,41.40
2017-12-30T14:24:00.504Z,33.34
2017-12-30T14:26:28.762Z,38.10
2017-12-30T14:28:57.021Z,41.36
2017-12-30T14:31:25.311Z,36.24
2017-12-30T14:33:53.579Z,37.24
2017-12-30T14:36:21.847Z,41.14
2017-12-30T14:38:50.141Z,26.30
2017-12-30T14:41:18.425Z,38.76
2017-12-30T14:43:47.756Z,29.64
2017-12-30T14:46:24.705Z,39.54
2017-12-30T14:48:53.392Z,26.12
2017-12-30T14:51:21.716Z,45.20
2017-12-30T14:53:50.017Z,38.48
2017-12-30T14:56:18.276Z,32.70
2017-12-30T14:58:47.885Z,41.76
2017-12-30T15:01:17.329Z,40.96
2017-12-30T15:03:46.584Z,38.96
2017-12-30T15:06:14.886Z,35.74
2017-12-30T15:08:43.169Z,27.26
2017-12-30T15:11:11.452Z,48.40
2017-12-30T15:13:39.752Z,33.38
2017-12-30T15:16:08.048Z,38.36
2017-12-30T15:18:36.335Z,35.10
2017-12-30T15:21:04.622Z,46.66
2017-12-30T15:23:32.873Z,49.88
2017-12-30T15:26:01.178Z,26.98
2017-12-30T15:28:29.438Z,27.50
2017-12-30T15:30:57.694Z,31.38
2017-12-30T15:33:25.973Z,36.18
2017-12-30T15:35:54.230Z,36.28
2017-12-30T15:38:22.571Z,36.72
2017-12-30T15:40:50.867Z,27.48
2017-12-30T15:43:19.118Z,25.92
2017-12-30T15:45:47.414Z,38.58
2017-12-30T15:48:16.209Z,25.00
2017-12-30T15:50:44.462Z,39.30
2017-12-30T15:53:13.070Z,37.86
2017-12-30T15:55:41.361Z,32.12
2017-12-30T15:58:09.681Z,36.86
2017-12-30T16:00:37.957Z,24.58
2017-12-30T16:03:06.258Z,35.40
2017-12-30T16:05:34.536Z,45.50
2017-12-30T16:08:02.796Z,32.24
2017-12-30T16:10:31.101Z,33.54
2017-12-30T16:12:59.399Z,41.32
2017-12-30T16:15:27.678Z,48.32
2017-12-30T16:17:56.300Z,27.90
2017-12-30T16:20:24.619Z,28.48
2017-12-30T16:22:52.879Z,41.40
2017-12-30T16:25:21.130Z,33.60
2017-12-30T16:27:49.424Z,37.04
2017-12-30T16:30:17.710Z,26.08
2017-12-30T16:32:47.446Z,29.42
2017-12-30T16:35:16.325Z,42.82
2017-12-30T16:37:45.760Z,36.54
2017-12-30T16:40:14.035Z,40.66
2017-12-30T16:42:42.358Z,31.34
2017-12-30T16:45:10.616Z,30.92
2017-12-30T16:47:38.955Z,30.06
2017-12-30T16:50:07.249Z,35.00
2017-12-30T16:52:35.582Z,35.48
2017-12-30T16:55:03.875Z,32.02
2017-12-30T16:57:35.253Z,25.22
2017-12-30T17:00:03.565Z,41.32
2017-12-30T17:02:31.860Z,41.52
2017-12-30T17:05:00.171Z,35.46
2017-12-30T17:07:28.430Z,48.46
2017-12-30T17:09:56.737Z,33.36
2017-12-30T17:12:26.932Z,40.06
2017-12-30T17:14:55.557Z,41.14
2017-12-30T17:17:25.858Z,34.32
2017-12-30T17:19:54.114Z,50.70
2017-12-30T17:22:35.570Z,37.34
2017-12-30T17:25:03.890Z,35.50
2017-12-30T17:27:55.200Z,38.90
2017-12-30T17:30:23.594Z,38.36
2017-12-30T17:33:13.212Z,27.40
2017-12-30T17:35:41.565Z,36.26
2017-12-30T17:38:33.276Z,21.56
2017-12-30T17:41:01.628Z,44.88
2017-12-30T17:43:29.893Z,41.96
2017-12-30T17:45:58.359Z,28.10
2017-12-30T17:48:35.021Z,33.80
2017-12-30T17:51:03.366Z,34.74
2017-12-30T17:53:43.264Z,30.42
2017-12-30T17:56:11.545Z,33.08
2017-12-30T17:58:46.707Z,24.66
2017-12-30T18:01:15.364Z,41.74
2017-12-30T18:03:43.617Z,28.64
2017-12-30T18:06:11.939Z,28.44
2017-12-30T18:09:02.116Z,51.66
2017-12-30T18:11:30.453Z,41.52
2017-12-30T18:14:22.130Z,32.86
2017-12-30T18:16:50.504Z,34.80
2017-12-30T18:19:24.965Z,38.66
2017-12-30T18:21:53.254Z,37.20
2017-12-30T18:24:21.550Z,22.40
2017-12-30T18:26:49.875Z,46.08
2017-12-30T18:29:25.156Z,34.28
2017-12-30T18:31:53.476Z,32.10
2017-12-30T18:34:33.226Z,35.72
2017-12-30T18:37:01.474Z,20.76
2017-12-30T18:39:43.096Z,31.30
2017-12-30T18:42:11.422Z,32.36
2017-12-30T18:47:37.063Z,27.62
2017-12-30T18:50:05.388Z,37.54
2017-12-30T18:52:34.683Z,26.68
2017-12-30T18:55:03.035Z,29.38
2017-12-30T18:57:38.855Z,28.70
2017-12-30T19:00:07.157Z,34.28
2017-12-30T19:02:39.378Z,33.22
2017-12-30T19:05:07.713Z,28.08
2017-12-30T19:07:50.820Z,26.22
2017-12-30T19:10:19.112Z,45.78
2017-12-30T19:12:47.443Z,27.66
2017-12-30T19:15:16.224Z,42.48
2017-12-30T19:17:45.728Z,29.42
2017-12-30T19:20:17.275Z,28.28
2017-12-30T19:22:46.495Z,19.08
2017-12-30T19:25:15.505Z,23.94
2017-12-30T19:28:07.051Z,40.46
2017-12-30T19:30:35.363Z,31.86
2017-12-30T19:33:08.143Z,32.72
2017-12-30T19:35:35.677Z,22.40
2017-12-30T19:38:08.165Z,32.74
2017-12-30T19:40:36.448Z,26.54
2017-12-30T19:43:10.886Z,27.50
2017-12-30T19:45:39.236Z,30.68
2017-12-30T19:48:08.958Z,31.22
2017-12-30T19:50:37.308Z,30.00
2017-12-30T19:53:29.470Z,33.72
2017-12-30T19:55:57.775Z,49.80
2017-12-30T19:58:29.746Z,26.14
2017-12-30T20:00:58.068Z,22.26
2017-12-30T20:03:26.413Z,24.28
2017-12-30T20:05:54.720Z,28.10
2017-12-30T20:08:23.077Z,35.46
2017-12-30T20:10:51.385Z,28.66
2017-12-30T20:13:19.701Z,35.30
2017-12-30T20:15:48.069Z,28.06
2017-12-30T20:18:16.980Z,32.62
2017-12-30T20:20:46.076Z,33.34
2017-12-30T20:23:14.413Z,38.98
2017-12-30T20:25:42.790Z,34.70
2017-12-30T20:28:11.181Z,33.88
2017-12-30T20:30:39.492Z,38.52
2017-12-30T20:33:07.814Z,28.70
2017-12-30T20:35:36.152Z,27.02
2017-12-30T20:38:03.697Z,26.60
2017-12-30T20:40:32.037Z,35.14
2017-12-30T20:43:00.383Z,22.18
2017-12-30T20:45:28.723Z,43.04
2017-12-30T20:47:57.068Z,29.28
2017-12-30T20:50:25.374Z,28.68
2017-12-30T20:52:53.727Z,36.36
2017-12-30T20:55:22.094Z,29.96
2017-12-30T20:57:50.393Z,30.66
2017-12-30T21:00:18.697Z,34.22
2017-12-30T21:02:47.041Z,25.40
2017-12-30T21:05:16.069Z,37.22
2017-12-30T21:07:44.447Z,34.14
2017-12-30T21:10:12.802Z,24.84
2017-12-30T21:12:41.109Z,48.00
2017-12-30T21:15:09.429Z,34.96
2017-12-30T21:17:37.765Z,38.26
2017-12-30T21:20:07.097Z,30.78
2017-12-30T21:22:35.444Z,43.06
2017-12-30T21:25:03.753Z,37.76
2017-12-30T21:27:32.066Z,29.98
2017-12-30T21:30:00.417Z,27.72
2017-12-30T21:32:28.741Z,44.42
2017-12-30T21:34:57.086Z,33.60
2017-12-30T21:37:25.452Z,43.10
2017-12-30T21:39:53.794Z,31.08
2017-12-30T21:42:22.124Z,39.86
2017-12-30T21:44:50.468Z,44.24
2017-12-30T21:47:18.830Z,31.40
2017-12-30T21:49:47.166Z,36.84
2017-12-30T21:52:16.858Z,32.94
2017-12-30T21:54:46.396Z,54.86
2017-12-30T21:57:15.511Z,43.76
2017-12-30T21:59:43.852Z,23.82
2017-12-30T22:02:12.152Z,39.60
2017-12-30T22:04:40.519Z,43.70
2017-12-30T22:07:08.835Z,27.22
2017-12-30T22:09:37.165Z,38.08
2017-12-30T22:12:05.516Z,33.70
2017-12-30T22:14:33.862Z,39.26
2017-12-30T22:17:04.319Z,34.24
2017-12-30T22:19:32.665Z,35.02
2017-12-30T22:22:01.022Z,37.66
2017-12-30T22:24:29.365Z,41.82
2017-12-30T22:26:57.715Z,42.36
2017-12-30T22:29:26.061Z,30.14
2017-12-30T22:31:54.380Z,29.52
2017-12-30T22:34:22.695Z,41.64
2017-12-30T22:36:51.053Z,28.94
2017-12-30T22:39:19.371Z,28.06
2017-12-30T22:41:47.695Z,34.36
2017-12-30T22:44:16.763Z,37.76
2017-12-30T22:46:46.344Z,35.60
2017-12-30T22:49:15.489Z,30.56
2017-12-30T22:51:43.813Z,35.86
2017-12-30T22:54:12.177Z,28.84
2017-12-30T22:56:40.499Z,29.46
2017-12-30T22:59:08.854Z,29.84
2017-12-30T23:01:37.181Z,38.04
2017-12-30T23:04:05.481Z,41.68
2017-12-30T23:06:33.813Z,40.38
2017-12-30T23:09:02.121Z,36.04
2017-12-30T23:11:30.470Z,35.66
2017-12-30T23:13:58.798Z,30.08
2017-12-30T23:16:27.153Z,30.86
2017-12-30T23:18:55.470Z,36.36
2017-12-30T23:21:23.822Z,28.46
2017-12-30T23:23:52.124Z,37.76
2017-12-30T23:26:20.444Z,53.00
2017-12-30T23:28:48.782Z,31.78
2017-12-30T23:31:17.093Z,38.70
2017-12-30T23:33:46.694Z,40.30
2017-12-30T23:36:15.022Z,38.70
2017-12-30T23:38:42.593Z,30.52
2017-12-30T23:41:10.938Z,33.10
2017-12-30T23:43:39.275Z,23.34
2017-12-30T23:46:07.617Z,31.12
2017-12-30T23:48:35.917Z,41.10
2017-12-30T23:51:04.276Z,30.28
2017-12-30T23:53:32.599Z,24.84
2017-12-30T23:56:00.948Z,30.68
2017-12-30T23:58:29.280Z,41.08
